sensor_id;sensor_type;location;lat;lon;timestamp;pressure;altitude;pressure_sealevel;temperature;humidity
57248;BME280;55809;46.618;10.764;2023-05-12T00:00:54;92545.34;;;9.00;94.45
57248;BME280;55809;46.618;10.764;2023-05-12T00:04:02;92478.75;;;8.63;93.82
57248;BME280;55809;46.618;10.764;2023-05-12T00:06:35;92547.56;;;9.09;93.68
57248;BME280;55809;46.618;10.764;2023-05-12T00:09:25;92544.50;;;9.07;93.79
57248;BME280;55809;46.618;10.764;2023-05-12T00:12:19;92576.97;;;9.34;93.17
57248;BME280;55809;46.618;10.764;2023-05-12T00:15:01;92526.47;;;9.04;92.61
57248;BME280;55809;46.618;10.764;2023-05-12T00:17:53;92521.84;;;9.04;92.36
57248;BME280;55809;46.618;10.764;2023-05-12T00:21:07;92476.84;;;8.60;93.72
57248;BME280;55809;46.618;10.764;2023-05-12T00:23:39;92518.19;;;8.80;94.62
57248;BME280;55809;46.618;10.764;2023-05-12T00:26:11;92573.38;;;9.06;95.95
57248;BME280;55809;46.618;10.764;2023-05-12T00:28:44;92488.91;;;8.41;96.25
57248;BME280;55809;46.618;10.764;2023-05-12T00:31:17;92492.28;;;8.49;96.69
57248;BME280;55809;46.618;10.764;2023-05-12T00:33:48;92490.38;;;8.45;95.97
57248;BME280;55809;46.618;10.764;2023-05-12T00:36:34;92500.81;;;8.40;96.59
57248;BME280;55809;46.618;10.764;2023-05-12T00:39:52;92542.78;;;8.82;95.40
57248;BME280;55809;46.618;10.764;2023-05-12T00:42:37;92504.66;;;8.35;96.50
57248;BME280;55809;46.618;10.764;2023-05-12T00:45:45;92493.63;;;8.15;96.74
57248;BME280;55809;46.618;10.764;2023-05-12T00:48:28;92492.59;;;7.95;97.73
57248;BME280;55809;46.618;10.764;2023-05-12T00:51:05;92488.81;;;7.85;98.97
57248;BME280;55809;46.618;10.764;2023-05-12T00:53:52;92537.41;;;8.12;100.00
57248;BME280;55809;46.618;10.764;2023-05-12T00:56:25;92592.56;;;8.53;100.00
57248;BME280;55809;46.618;10.764;2023-05-12T00:58:58;92560.38;;;8.31;100.00
57248;BME280;55809;46.618;10.764;2023-05-12T01:01:27;92525.16;;;8.08;100.00
57248;BME280;55809;46.618;10.764;2023-05-12T01:04:08;92583.41;;;8.43;100.00
57248;BME280;55809;46.618;10.764;2023-05-12T01:06:57;92594.06;;;8.57;100.00
57248;BME280;55809;46.618;10.764;2023-05-12T01:09:55;92495.66;;;7.97;100.00
57248;BME280;55809;46.618;10.764;2023-05-12T01:16:38;92494.56;;;7.87;100.00
57248;BME280;55809;46.618;10.764;2023-05-12T01:19:36;92590.31;;;8.44;100.00
57248;BME280;55809;46.618;10.764;2023-05-12T01:22:06;92603.63;;;8.62;100.00
57248;BME280;55809;46.618;10.764;2023-05-12T01:24:56;92544.66;;;8.22;100.00
57248;BME280;55809;46.618;10.764;2023-05-12T01:31:02;92498.75;;;7.92;100.00
57248;BME280;55809;46.618;10.764;2023-05-12T01:33:46;92512.53;;;8.01;100.00
57248;BME280;55809;46.618;10.764;2023-05-12T01:36:34;92492.22;;;7.89;100.00
57248;BME280;55809;46.618;10.764;2023-05-12T01:39:15;92501.81;;;7.94;100.00
57248;BME280;55809;46.618;10.764;2023-05-12T01:41:59;92507.91;;;8.02;100.00
57248;BME280;55809;46.618;10.764;2023-05-12T01:44:45;92553.09;;;8.28;100.00
57248;BME280;55809;46.618;10.764;2023-05-12T01:47:29;92561.13;;;8.39;100.00
57248;BME280;55809;46.618;10.764;2023-05-12T01:50:44;92526.25;;;8.21;100.00
57248;BME280;55809;46.618;10.764;2023-05-12T01:53:43;92504.44;;;8.05;100.00
57248;BME280;55809;46.618;10.764;2023-05-12T01:56:28;92572.94;;;8.52;100.00
57248;BME280;55809;46.618;10.764;2023-05-12T01:59:21;92567.22;;;8.50;100.00
57248;BME280;55809;46.618;10.764;2023-05-12T02:02:22;92524.75;;;8.16;100.00
57248;BME280;55809;46.618;10.764;2023-05-12T02:05:33;92585.97;;;8.61;100.00
57248;BME280;55809;46.618;10.764;2023-05-12T02:08:11;92577.97;;;8.54;100.00
57248;BME280;55809;46.618;10.764;2023-05-12T02:11:05;92575.28;;;8.50;100.00
57248;BME280;55809;46.618;10.764;2023-05-12T02:13:48;92552.28;;;8.42;100.00
57248;BME280;55809;46.618;10.764;2023-05-12T02:16:25;92555.34;;;8.44;100.00
57248;BME280;55809;46.618;10.764;2023-05-12T02:19:39;92547.69;;;8.39;100.00
57248;BME280;55809;46.618;10.764;2023-05-12T02:22:50;92476.44;;;7.98;100.00
57248;BME280;55809;46.618;10.764;2023-05-12T02:25:21;92588.56;;;8.75;100.00
57248;BME280;55809;46.618;10.764;2023-05-12T02:28:11;92588.16;;;8.80;100.00
57248;BME280;55809;46.618;10.764;2023-05-12T02:31:11;92585.09;;;8.82;100.00
57248;BME280;55809;46.618;10.764;2023-05-12T02:33:43;92575.44;;;8.84;100.00
57248;BME280;55809;46.618;10.764;2023-05-12T02:39:27;92561.59;;;8.86;99.40
57248;BME280;55809;46.618;10.764;2023-05-12T02:42:12;92512.22;;;8.55;98.34
57248;BME280;55809;46.618;10.764;2023-05-12T02:45:04;92558.16;;;8.85;98.31
57248;BME280;55809;46.618;10.764;2023-05-12T02:50:44;92520.25;;;8.65;97.98
57248;BME280;55809;46.618;10.764;2023-05-12T02:53:29;92579.91;;;9.05;97.95
57248;BME280;55809;46.618;10.764;2023-05-12T02:56:37;92491.22;;;8.39;98.35
57248;BME280;55809;46.618;10.764;2023-05-12T02:59:27;92505.38;;;8.47;99.07
57248;BME280;55809;46.618;10.764;2023-05-12T03:02:21;92490.47;;;8.31;99.28
57248;BME280;55809;46.618;10.764;2023-05-12T03:04:54;92479.31;;;8.36;98.84
57248;BME280;55809;46.618;10.764;2023-05-12T03:07:34;92571.88;;;9.02;98.08
57248;BME280;55809;46.618;10.764;2023-05-12T03:10:18;92485.81;;;8.46;97.46
57248;BME280;55809;46.618;10.764;2023-05-12T03:16:21;92496.44;;;8.60;96.88
57248;BME280;55809;46.618;10.764;2023-05-12T03:18:58;92565.28;;;9.06;97.45
57248;BME280;55809;46.618;10.764;2023-05-12T03:22:07;92559.56;;;9.01;97.77
57248;BME280;55809;46.618;10.764;2023-05-12T03:27:52;92477.69;;;8.50;97.41
57248;BME280;55809;46.618;10.764;2023-05-12T03:30:24;92562.97;;;9.05;97.63
57248;BME280;55809;46.618;10.764;2023-05-12T03:33:10;92470.88;;;8.38;97.62
57248;BME280;55809;46.618;10.764;2023-05-12T03:35:45;92536.63;;;8.85;98.00
57248;BME280;55809;46.618;10.764;2023-05-12T03:38:17;92484.59;;;8.51;98.14
57248;BME280;55809;46.618;10.764;2023-05-12T03:41:20;92506.78;;;8.62;97.68
57248;BME280;55809;46.618;10.764;2023-05-12T03:44:10;92531.59;;;8.87;97.54
57248;BME280;55809;46.618;10.764;2023-05-12T03:46:55;92479.25;;;8.47;97.71
57248;BME280;55809;46.618;10.764;2023-05-12T03:49:53;92564.16;;;9.04;97.79
57248;BME280;55809;46.618;10.764;2023-05-12T03:52:40;92485.38;;;8.48;98.20
57248;BME280;55809;46.618;10.764;2023-05-12T03:55:42;92542.38;;;8.84;99.38
57248;BME280;55809;46.618;10.764;2023-05-12T03:58:33;92469.69;;;8.35;99.23
57248;BME280;55809;46.618;10.764;2023-05-12T04:01:17;92471.63;;;8.35;98.91
57248;BME280;55809;46.618;10.764;2023-05-12T04:03:56;92535.88;;;8.81;98.46
57248;BME280;55809;46.618;10.764;2023-05-12T04:06:46;92475.84;;;8.39;98.57
57248;BME280;55809;46.618;10.764;2023-05-12T04:09:21;92503.38;;;8.58;98.74
57248;BME280;55809;46.618;10.764;2023-05-12T04:12:11;92527.00;;;8.84;98.24
57248;BME280;55809;46.618;10.764;2023-05-12T04:14:44;92529.31;;;8.86;98.32
57248;BME280;55809;46.618;10.764;2023-05-12T04:17:26;92463.09;;;8.51;96.76
57248;BME280;55809;46.618;10.764;2023-05-12T04:20:33;92551.13;;;8.99;97.48
57248;BME280;55809;46.618;10.764;2023-05-12T04:23:34;92487.13;;;8.68;97.20
57248;BME280;55809;46.618;10.764;2023-05-12T04:26:11;92518.22;;;8.77;97.58
57248;BME280;55809;46.618;10.764;2023-05-12T04:29:20;92488.38;;;8.60;98.07
57248;BME280;55809;46.618;10.764;2023-05-12T04:31:56;92533.41;;;9.01;97.96
57248;BME280;55809;46.618;10.764;2023-05-12T04:35:03;92567.78;;;9.31;96.38
57248;BME280;55809;46.618;10.764;2023-05-12T04:40:59;92557.00;;;9.31;94.62
57248;BME280;55809;46.618;10.764;2023-05-12T04:43:29;92482.41;;;8.83;94.27
57248;BME280;55809;46.618;10.764;2023-05-12T04:49:12;92557.84;;;9.21;96.60
57248;BME280;55809;46.618;10.764;2023-05-12T04:52:00;92544.91;;;9.05;97.44
57248;BME280;55809;46.618;10.764;2023-05-12T04:55:02;92497.50;;;8.74;98.77
57248;BME280;55809;46.618;10.764;2023-05-12T04:57:40;92527.66;;;8.99;99.15
57248;BME280;55809;46.618;10.764;2023-05-12T05:00:25;92490.59;;;8.73;97.52
57248;BME280;55809;46.618;10.764;2023-05-12T05:03:05;92531.13;;;9.00;97.88
57248;BME280;55809;46.618;10.764;2023-05-12T05:05:47;92546.75;;;9.15;97.36
57248;BME280;55809;46.618;10.764;2023-05-12T05:08:18;92509.28;;;8.90;97.47
57248;BME280;55809;46.618;10.764;2023-05-12T05:11:10;92568.50;;;9.35;97.85
57248;BME280;55809;46.618;10.764;2023-05-12T05:17:18;92501.19;;;8.90;97.90
57248;BME280;55809;46.618;10.764;2023-05-12T05:20:01;92497.63;;;9.01;98.54
57248;BME280;55809;46.618;10.764;2023-05-12T05:22:45;92535.75;;;9.37;97.45
57248;BME280;55809;46.618;10.764;2023-05-12T05:25:33;92503.97;;;9.21;97.75
57248;BME280;55809;46.618;10.764;2023-05-12T05:28:40;92492.03;;;9.26;95.66
57248;BME280;55809;46.618;10.764;2023-05-12T05:31:27;92495.91;;;9.25;95.24
57248;BME280;55809;46.618;10.764;2023-05-12T05:34:13;92583.00;;;9.86;95.65
57248;BME280;55809;46.618;10.764;2023-05-12T05:37:16;92542.72;;;9.72;92.81
57248;BME280;55809;46.618;10.764;2023-05-12T05:39:51;92514.34;;;9.60;93.19
57248;BME280;55809;46.618;10.764;2023-05-12T05:42:36;92495.47;;;9.64;91.81
57248;BME280;55809;46.618;10.764;2023-05-12T05:45:27;92497.00;;;9.65;90.92
57248;BME280;55809;46.618;10.764;2023-05-12T05:48:12;92583.31;;;10.26;91.76
57248;BME280;55809;46.618;10.764;2023-05-12T05:51:12;92526.53;;;10.06;91.36
57248;BME280;55809;46.618;10.764;2023-05-12T05:53:43;92531.69;;;10.28;91.88
57248;BME280;55809;46.618;10.764;2023-05-12T05:56:26;92500.25;;;10.14;91.79
57248;BME280;55809;46.618;10.764;2023-05-12T05:59:06;92482.84;;;10.19;89.85
57248;BME280;55809;46.618;10.764;2023-05-12T06:01:54;92482.63;;;10.06;90.67
57248;BME280;55809;46.618;10.764;2023-05-12T06:04:59;92541.78;;;10.51;89.70
57248;BME280;55809;46.618;10.764;2023-05-12T06:07:50;92479.53;;;10.07;90.31
57248;BME280;55809;46.618;10.764;2023-05-12T06:10:54;92530.22;;;10.50;89.97
57248;BME280;55809;46.618;10.764;2023-05-12T06:13:22;92492.44;;;10.23;90.82
57248;BME280;55809;46.618;10.764;2023-05-12T06:16:06;92495.06;;;10.30;90.36
57248;BME280;55809;46.618;10.764;2023-05-12T06:19:18;92485.53;;;10.19;90.50
57248;BME280;55809;46.618;10.764;2023-05-12T06:21:57;92556.91;;;10.72;89.86
57248;BME280;55809;46.618;10.764;2023-05-12T06:24:54;92510.44;;;10.33;90.70
57248;BME280;55809;46.618;10.764;2023-05-12T06:27:39;92505.19;;;10.50;88.72
57248;BME280;55809;46.618;10.764;2023-05-12T06:30:21;92499.78;;;10.50;87.41
57248;BME280;55809;46.618;10.764;2023-05-12T06:32:55;92498.88;;;10.60;87.04
57248;BME280;55809;46.618;10.764;2023-05-12T06:35:35;92591.66;;;11.20;85.03
57248;BME280;55809;46.618;10.764;2023-05-12T06:38:12;92506.44;;;10.69;85.26
57248;BME280;55809;46.618;10.764;2023-05-12T06:40:48;92568.94;;;11.18;85.30
57248;BME280;55809;46.618;10.764;2023-05-12T06:43:17;92539.75;;;11.33;84.58
57248;BME280;55809;46.618;10.764;2023-05-12T06:45:48;92554.28;;;11.86;83.49
57248;BME280;55809;46.618;10.764;2023-05-12T06:48:20;92561.03;;;12.17;85.99
57248;BME280;55809;46.618;10.764;2023-05-12T06:51:01;92499.47;;;11.82;83.63
57248;BME280;55809;46.618;10.764;2023-05-12T06:53:29;92524.16;;;11.84;85.28
57248;BME280;55809;46.618;10.764;2023-05-12T06:56:03;92579.88;;;12.01;87.47
57248;BME280;55809;46.618;10.764;2023-05-12T06:58:49;92515.75;;;11.58;86.89
57248;BME280;55809;46.618;10.764;2023-05-12T07:01:28;92573.50;;;11.91;86.37
57248;BME280;55809;46.618;10.764;2023-05-12T07:04:08;92506.19;;;11.54;84.29
57248;BME280;55809;46.618;10.764;2023-05-12T07:06:48;92543.34;;;11.69;83.92
57248;BME280;55809;46.618;10.764;2023-05-12T07:09:27;92551.53;;;11.66;85.49
57248;BME280;55809;46.618;10.764;2023-05-12T07:12:18;92531.00;;;11.48;84.90
57248;BME280;55809;46.618;10.764;2023-05-12T07:14:53;92532.91;;;11.48;87.12
57248;BME280;55809;46.618;10.764;2023-05-12T07:17:30;92488.00;;;11.34;88.66
57248;BME280;55809;46.618;10.764;2023-05-12T07:20:01;92553.19;;;11.80;88.12
57248;BME280;55809;46.618;10.764;2023-05-12T07:22:35;92506.00;;;11.41;89.09
57248;BME280;55809;46.618;10.764;2023-05-12T07:25:19;92569.31;;;11.87;91.31
57248;BME280;55809;46.618;10.764;2023-05-12T07:28:25;92542.91;;;11.51;91.57
57248;BME280;55809;46.618;10.764;2023-05-12T07:31:46;92541.50;;;11.43;90.44
57248;BME280;55809;46.618;10.764;2023-05-12T07:34:39;92495.66;;;11.16;90.98
57248;BME280;55809;46.618;10.764;2023-05-12T07:37:39;92541.84;;;11.68;90.05
57248;BME280;55809;46.618;10.764;2023-05-12T07:40:45;92576.47;;;11.97;89.73
57248;BME280;55809;46.618;10.764;2023-05-12T07:43:38;92484.78;;;11.19;89.53
57248;BME280;55809;46.618;10.764;2023-05-12T07:46:15;92550.75;;;11.89;88.73
57248;BME280;55809;46.618;10.764;2023-05-12T07:52:11;92575.38;;;12.34;88.45
57248;BME280;55809;46.618;10.764;2023-05-12T07:57:54;92501.22;;;11.28;89.58
57248;BME280;55809;46.618;10.764;2023-05-12T08:04:15;92590.34;;;12.19;91.21
57248;BME280;55809;46.618;10.764;2023-05-12T08:07:09;92497.38;;;11.49;87.56
57248;BME280;55809;46.618;10.764;2023-05-12T08:09:53;92540.91;;;11.55;87.40
57248;BME280;55809;46.618;10.764;2023-05-12T08:13:02;92559.03;;;11.55;87.99
57248;BME280;55809;46.618;10.764;2023-05-12T08:19:15;92575.16;;;11.62;88.06
57248;BME280;55809;46.618;10.764;2023-05-12T08:25:27;92545.31;;;11.45;86.36
57248;BME280;55809;46.618;10.764;2023-05-12T08:28:10;92506.44;;;10.92;88.48
57248;BME280;55809;46.618;10.764;2023-05-12T08:31:49;92564.06;;;11.33;88.55
57248;BME280;55809;46.618;10.764;2023-05-12T08:34:59;92537.69;;;11.17;87.75
57248;BME280;55809;46.618;10.764;2023-05-12T08:37:41;92557.91;;;11.32;89.35
57248;BME280;55809;46.618;10.764;2023-05-12T08:46:58;92557.47;;;11.57;88.33
57248;BME280;55809;46.618;10.764;2023-05-12T08:49:50;92570.53;;;11.82;86.36
57248;BME280;55809;46.618;10.764;2023-05-12T08:52:56;92505.31;;;11.37;84.46
57248;BME280;55809;46.618;10.764;2023-05-12T08:55:31;92587.34;;;11.93;85.54
57248;BME280;55809;46.618;10.764;2023-05-12T08:58:13;92509.16;;;11.39;85.62
57248;BME280;55809;46.618;10.764;2023-05-12T09:00:53;92560.09;;;11.84;87.29
57248;BME280;55809;46.618;10.764;2023-05-12T09:10:13;92547.97;;;12.12;83.94
57248;BME280;55809;46.618;10.764;2023-05-12T09:13:25;92558.00;;;12.32;83.11
57248;BME280;55809;46.618;10.764;2023-05-12T09:16:02;92527.50;;;12.11;81.37
57248;BME280;55809;46.618;10.764;2023-05-12T09:18:50;92563.66;;;12.21;82.27
57248;BME280;55809;46.618;10.764;2023-05-12T09:21:27;92505.75;;;11.99;80.38
57248;BME280;55809;46.618;10.764;2023-05-12T09:24:08;92502.19;;;11.82;81.30
57248;BME280;55809;46.618;10.764;2023-05-12T09:27:23;92588.53;;;12.52;81.17
57248;BME280;55809;46.618;10.764;2023-05-12T09:30:03;92579.66;;;12.52;80.33
57248;BME280;55809;46.618;10.764;2023-05-12T09:32:54;92538.25;;;12.35;80.78
57248;BME280;55809;46.618;10.764;2023-05-12T09:35:43;92558.75;;;12.52;78.32
57248;BME280;55809;46.618;10.764;2023-05-12T09:38:38;92549.94;;;12.48;78.72
57248;BME280;55809;46.618;10.764;2023-05-12T09:41:22;92496.66;;;12.09;80.02
57248;BME280;55809;46.618;10.764;2023-05-12T09:44:08;92547.44;;;12.57;78.46
57248;BME280;55809;46.618;10.764;2023-05-12T09:47:09;92505.41;;;12.33;79.61
57248;BME280;55809;46.618;10.764;2023-05-12T09:49:50;92541.22;;;12.77;77.47
57248;BME280;55809;46.618;10.764;2023-05-12T09:52:48;92501.50;;;12.54;77.44
57248;BME280;55809;46.618;10.764;2023-05-12T09:55:28;92506.59;;;12.84;78.66
57248;BME280;55809;46.618;10.764;2023-05-12T09:57:58;92493.06;;;13.33;75.69
57248;BME280;55809;46.618;10.764;2023-05-12T10:00:58;92537.75;;;14.16;70.44
57248;BME280;55809;46.618;10.764;2023-05-12T10:03:33;92507.25;;;14.38;71.42
57248;BME280;55809;46.618;10.764;2023-05-12T10:06:11;92524.03;;;15.13;70.33
57248;BME280;55809;46.618;10.764;2023-05-12T10:08:43;92476.88;;;15.54;67.21
57248;BME280;55809;46.618;10.764;2023-05-12T10:11:19;92470.78;;;16.07;67.63
57248;BME280;55809;46.618;10.764;2023-05-12T10:14:04;92494.56;;;16.37;66.46
57248;BME280;55809;46.618;10.764;2023-05-12T10:16:43;92501.22;;;16.14;66.34
57248;BME280;55809;46.618;10.764;2023-05-12T10:19:20;92455.56;;;16.18;66.78
57248;BME280;55809;46.618;10.764;2023-05-12T10:22:01;92461.44;;;16.39;64.20
57248;BME280;55809;46.618;10.764;2023-05-12T10:24:33;92483.47;;;16.94;61.27
57248;BME280;55809;46.618;10.764;2023-05-12T10:27:04;92497.09;;;17.44;61.28
57248;BME280;55809;46.618;10.764;2023-05-12T10:29:34;92500.47;;;18.03;61.22
57248;BME280;55809;46.618;10.764;2023-05-12T10:32:10;92516.56;;;18.19;61.98
57248;BME280;55809;46.618;10.764;2023-05-12T10:34:42;92506.09;;;17.99;57.65
57248;BME280;55809;46.618;10.764;2023-05-12T10:37:12;92499.56;;;18.24;57.88
57248;BME280;55809;46.618;10.764;2023-05-12T10:39:45;92514.13;;;18.40;55.91
57248;BME280;55809;46.618;10.764;2023-05-12T10:42:22;92502.03;;;18.04;58.67
57248;BME280;55809;46.618;10.764;2023-05-12T10:44:55;92511.56;;;18.27;59.77
57248;BME280;55809;46.618;10.764;2023-05-12T10:47:36;92507.91;;;18.30;59.62
57248;BME280;55809;46.618;10.764;2023-05-12T10:50:13;92514.56;;;17.06;59.86
57248;BME280;55809;46.618;10.764;2023-05-12T10:52:55;92484.59;;;17.06;59.04
57248;BME280;55809;46.618;10.764;2023-05-12T10:55:35;92471.50;;;17.59;58.76
57248;BME280;55809;46.618;10.764;2023-05-12T10:58:12;92439.78;;;17.44;57.73
57248;BME280;55809;46.618;10.764;2023-05-12T11:00:48;92476.84;;;17.91;56.06
57248;BME280;55809;46.618;10.764;2023-05-12T11:03:24;92462.56;;;17.68;57.42
57248;BME280;55809;46.618;10.764;2023-05-12T11:06:34;92508.00;;;17.53;58.54
57248;BME280;55809;46.618;10.764;2023-05-12T11:09:06;92467.72;;;16.27;57.46
57248;BME280;55809;46.618;10.764;2023-05-12T11:11:39;92505.91;;;16.36;60.92
57248;BME280;55809;46.618;10.764;2023-05-12T11:14:25;92431.22;;;15.71;61.73
57248;BME280;55809;46.618;10.764;2023-05-12T11:17:08;92454.50;;;15.94;63.11
57248;BME280;55809;46.618;10.764;2023-05-12T11:23:22;92449.84;;;16.57;61.66
57248;BME280;55809;46.618;10.764;2023-05-12T11:26:05;92470.44;;;16.58;60.62
57248;BME280;55809;46.618;10.764;2023-05-12T11:28:39;92440.13;;;16.47;60.67
57248;BME280;55809;46.618;10.764;2023-05-12T11:31:06;92496.78;;;16.83;59.33
57248;BME280;55809;46.618;10.764;2023-05-12T11:33:37;92437.00;;;16.26;60.75
57248;BME280;55809;46.618;10.764;2023-05-12T11:36:05;92473.50;;;16.29;59.58
57248;BME280;55809;46.618;10.764;2023-05-12T11:38:47;92467.25;;;15.97;61.99
57248;BME280;55809;46.618;10.764;2023-05-12T11:41:21;92496.97;;;15.91;60.73
57248;BME280;55809;46.618;10.764;2023-05-12T11:43:52;92490.44;;;15.67;62.49
57248;BME280;55809;46.618;10.764;2023-05-12T11:46:24;92448.06;;;15.09;63.83
57248;BME280;55809;46.618;10.764;2023-05-12T11:48:54;92493.25;;;15.16;64.81
57248;BME280;55809;46.618;10.764;2023-05-12T11:51:23;92480.59;;;14.74;66.01
57248;BME280;55809;46.618;10.764;2023-05-12T11:53:55;92421.25;;;14.47;66.55
57248;BME280;55809;46.618;10.764;2023-05-12T11:56:23;92495.13;;;14.93;68.07
57248;BME280;55809;46.618;10.764;2023-05-12T11:58:52;92495.81;;;14.97;66.67
57248;BME280;55809;46.618;10.764;2023-05-12T12:01:22;92494.06;;;14.91;64.69
57248;BME280;55809;46.618;10.764;2023-05-12T12:03:52;92496.69;;;14.94;65.21
57248;BME280;55809;46.618;10.764;2023-05-12T12:06:43;92426.81;;;14.57;65.40
57248;BME280;55809;46.618;10.764;2023-05-12T12:09:36;92456.91;;;14.75;65.88
57248;BME280;55809;46.618;10.764;2023-05-12T12:12:11;92420.94;;;14.45;65.51
57248;BME280;55809;46.618;10.764;2023-05-12T12:15:10;92427.78;;;14.50;67.18
57248;BME280;55809;46.618;10.764;2023-05-12T12:18:07;92414.41;;;14.30;67.71
57248;BME280;55809;46.618;10.764;2023-05-12T12:20:49;92487.97;;;14.99;67.70
57248;BME280;55809;46.618;10.764;2023-05-12T12:23:54;92470.56;;;15.10;67.61
57248;BME280;55809;46.618;10.764;2023-05-12T12:26:46;92404.44;;;14.52;66.38
57248;BME280;55809;46.618;10.764;2023-05-12T12:29:43;92409.06;;;13.88;67.28
57248;BME280;55809;46.618;10.764;2023-05-12T12:32:34;92453.31;;;13.85;70.55
57248;BME280;55809;46.618;10.764;2023-05-12T12:35:17;92414.16;;;13.44;71.67
57248;BME280;55809;46.618;10.764;2023-05-12T12:38:15;92513.69;;;13.89;72.35
57248;BME280;55809;46.618;10.764;2023-05-12T12:41:00;92431.06;;;13.03;73.38
57248;BME280;55809;46.618;10.764;2023-05-12T12:43:43;92412.84;;;12.58;74.11
57248;BME280;55809;46.618;10.764;2023-05-12T12:46:32;92422.38;;;12.46;73.63
57248;BME280;55809;46.618;10.764;2023-05-12T12:49:30;92462.06;;;13.02;76.44
57248;BME280;55809;46.618;10.764;2023-05-12T12:52:20;92495.78;;;13.63;74.54
57248;BME280;55809;46.618;10.764;2023-05-12T12:55:04;92497.84;;;14.00;73.32
57248;BME280;55809;46.618;10.764;2023-05-12T12:57:55;92498.22;;;14.15;71.64
57248;BME280;55809;46.618;10.764;2023-05-12T13:01:10;92492.56;;;14.51;69.99
57248;BME280;55809;46.618;10.764;2023-05-12T13:03:53;92429.50;;;14.05;71.41
57248;BME280;55809;46.618;10.764;2023-05-12T13:06:53;92491.47;;;14.62;71.92
57248;BME280;55809;46.618;10.764;2023-05-12T13:09:58;92495.34;;;14.35;71.24
57248;BME280;55809;46.618;10.764;2023-05-12T13:12:44;92432.69;;;13.75;70.15
57248;BME280;55809;46.618;10.764;2023-05-12T13:15:18;92424.28;;;13.27;71.56
57248;BME280;55809;46.618;10.764;2023-05-12T13:17:51;92477.94;;;13.49;71.81
57248;BME280;55809;46.618;10.764;2023-05-12T13:21:08;92520.47;;;13.81;73.00
57248;BME280;55809;46.618;10.764;2023-05-12T13:23:53;92518.41;;;13.72;72.33
57248;BME280;55809;46.618;10.764;2023-05-12T13:27:04;92427.66;;;13.15;73.21
57248;BME280;55809;46.618;10.764;2023-05-12T13:29:51;92425.78;;;13.28;73.22
57248;BME280;55809;46.618;10.764;2023-05-12T13:32:45;92434.84;;;13.38;72.45
57248;BME280;55809;46.618;10.764;2023-05-12T13:35:28;92495.44;;;13.90;71.90
57248;BME280;55809;46.618;10.764;2023-05-12T13:40:52;92461.19;;;13.67;71.87
57248;BME280;55809;46.618;10.764;2023-05-12T13:43:26;92483.59;;;13.83;69.31
57248;BME280;55809;46.618;10.764;2023-05-12T13:46:12;92509.56;;;13.97;70.77
57248;BME280;55809;46.618;10.764;2023-05-12T13:48:47;92451.63;;;13.62;69.61
57248;BME280;55809;46.618;10.764;2023-05-12T13:51:49;92412.84;;;13.36;67.39
57248;BME280;55809;46.618;10.764;2023-05-12T13:55:13;92477.22;;;13.61;68.42
57248;BME280;55809;46.618;10.764;2023-05-12T13:58:10;92453.50;;;13.78;67.62
57248;BME280;55809;46.618;10.764;2023-05-12T14:00:56;92435.41;;;13.88;66.33
57248;BME280;55809;46.618;10.764;2023-05-12T14:04:19;92453.59;;;14.16;65.00
57248;BME280;55809;46.618;10.764;2023-05-12T14:10:24;92387.44;;;13.84;64.74
57248;BME280;55809;46.618;10.764;2023-05-12T14:16:03;92415.16;;;14.18;62.86
57248;BME280;55809;46.618;10.764;2023-05-12T14:19:00;92427.88;;;14.21;62.51
57248;BME280;55809;46.618;10.764;2023-05-12T14:21:51;92448.59;;;14.15;61.92
57248;BME280;55809;46.618;10.764;2023-05-12T14:24:32;92397.00;;;13.76;64.25
57248;BME280;55809;46.618;10.764;2023-05-12T14:30:40;92409.16;;;13.84;64.99
57248;BME280;55809;46.618;10.764;2023-05-12T14:33:12;92411.69;;;14.04;64.48
57248;BME280;55809;46.618;10.764;2023-05-12T14:35:48;92403.00;;;13.97;63.95
57248;BME280;55809;46.618;10.764;2023-05-12T14:38:37;92378.44;;;13.75;62.23
57248;BME280;55809;46.618;10.764;2023-05-12T14:41:25;92406.03;;;13.86;63.81
57248;BME280;55809;46.618;10.764;2023-05-12T14:47:53;92384.75;;;13.84;62.52
57248;BME280;55809;46.618;10.764;2023-05-12T14:51:11;92424.84;;;14.19;62.54
57248;BME280;55809;46.618;10.764;2023-05-12T14:54:34;92449.41;;;14.53;62.52
57248;BME280;55809;46.618;10.764;2023-05-12T14:57:16;92373.03;;;13.88;62.49
57248;BME280;55809;46.618;10.764;2023-05-12T15:00:02;92367.56;;;13.75;63.18
57248;BME280;55809;46.618;10.764;2023-05-12T15:03:02;92411.25;;;14.06;64.91
57248;BME280;55809;46.618;10.764;2023-05-12T15:05:41;92402.66;;;14.07;64.65
57248;BME280;55809;46.618;10.764;2023-05-12T15:08:19;92424.00;;;14.35;63.98
57248;BME280;55809;46.618;10.764;2023-05-12T15:10:59;92415.06;;;14.34;62.83
57248;BME280;55809;46.618;10.764;2023-05-12T15:13:45;92424.53;;;14.29;62.57
57248;BME280;55809;46.618;10.764;2023-05-12T15:16:32;92371.63;;;13.83;60.46
57248;BME280;55809;46.618;10.764;2023-05-12T15:19:17;92441.16;;;14.31;62.47
57248;BME280;55809;46.618;10.764;2023-05-12T15:21:52;92409.31;;;14.06;63.29
57248;BME280;55809;46.618;10.764;2023-05-12T15:24:29;92436.47;;;14.32;60.80
57248;BME280;55809;46.618;10.764;2023-05-12T15:27:23;92460.78;;;14.36;61.38
57248;BME280;55809;46.618;10.764;2023-05-12T15:30:07;92371.06;;;13.63;60.48
57248;BME280;55809;46.618;10.764;2023-05-12T15:32:42;92441.44;;;13.95;58.98
57248;BME280;55809;46.618;10.764;2023-05-12T15:35:28;92436.31;;;13.97;61.58
57248;BME280;55809;46.618;10.764;2023-05-12T15:38:10;92383.41;;;13.64;59.00
57248;BME280;55809;46.618;10.764;2023-05-12T15:40:45;92441.34;;;14.12;59.04
57248;BME280;55809;46.618;10.764;2023-05-12T15:43:17;92384.19;;;13.77;59.29
57248;BME280;55809;46.618;10.764;2023-05-12T15:45:55;92421.66;;;14.07;59.16
57248;BME280;55809;46.618;10.764;2023-05-12T15:48:38;92393.41;;;13.67;58.75